Terminal Aerodrome Forecast
Issued by NWS Bismarck, ND

Home | Current Version | Previous Version | Text Only | Print | Product List | Glossary Off
Versions: 1 2 3 4 5 6 7 8 9 10 11 12 13 14 15 16 17 18 19

000
FTUS43 KBIS 281100
TAFBIS
TAF
KBIS 281133Z 2812/2912 03015KT P6SM OVC015
     FM281600 03015KT P6SM VCSH SCT015 BKN025 OVC040
     FM281800 04016G22KT P6SM VCSH BKN015 OVC025
     FM290600 05010KT 3SM BR OVC010=

USA.gov is the U.S. government's official web portal to all federal, state and local government web resources and services.